createdAt,value
2022-11-25T00:00:50.084Z,95526.41
2022-11-25T00:03:18.606Z,95531.34
2022-11-25T00:05:46.333Z,95532.31
2022-11-25T00:08:15.719Z,95530.53
2022-11-25T00:10:43.407Z,95541.09
2022-11-25T00:13:11.703Z,95531.78
2022-11-25T00:15:39.411Z,95539.69
2022-11-25T00:18:08.113Z,95540.94
2022-11-25T00:20:38.625Z,95533.78
2022-11-25T00:23:06.866Z,95536.78
2022-11-25T00:25:38.056Z,95518.53
2022-11-25T00:28:05.920Z,95525.09
2022-11-25T00:30:33.793Z,95523.69
2022-11-25T00:33:01.972Z,95517.09
2022-11-25T00:35:29.632Z,95516.81
2022-11-25T00:37:57.982Z,95520.91
2022-11-25T00:40:26.770Z,95517.34
2022-11-25T00:43:14.187Z,95509.19
2022-11-25T00:45:41.900Z,95514.38
2022-11-25T00:48:09.956Z,95521.50
2022-11-25T00:50:37.594Z,95514.25
2022-11-25T00:53:05.621Z,95514.81
2022-11-25T00:55:54.104Z,95513.84
2022-11-25T00:58:23.287Z,95517.28
2022-11-25T01:00:51.011Z,95523.31
2022-11-25T01:03:18.931Z,95520.69
2022-11-25T01:05:46.593Z,95516.34
2022-11-25T01:08:15.432Z,95523.63
2022-11-25T01:10:43.648Z,95525.94
2022-11-25T01:13:11.298Z,95524.94
2022-11-25T01:15:41.198Z,95525.53
2022-11-25T01:18:10.180Z,95532.94
2022-11-25T01:20:38.192Z,95532.09
2022-11-25T01:23:05.884Z,95525.13
2022-11-25T01:25:37.584Z,95523.94
2022-11-25T01:28:05.738Z,95520.91
2022-11-25T01:33:25.378Z,95521.22
2022-11-25T01:35:53.324Z,95524.50
2022-11-25T01:38:21.029Z,95518.66
2022-11-25T01:40:49.075Z,95522.66
2022-11-25T01:43:16.918Z,95524.00
2022-11-25T01:45:45.086Z,95525.66
2022-11-25T01:48:17.662Z,95523.19
2022-11-25T01:50:49.481Z,95531.94
2022-11-25T01:53:20.444Z,95524.81
2022-11-25T01:55:52.367Z,95517.31
2022-11-25T01:58:24.034Z,95517.16
2022-11-25T02:00:52.415Z,95517.97
2022-11-25T02:03:23.183Z,95514.16
2022-11-25T02:06:00.159Z,95523.63
2022-11-25T02:08:29.772Z,95517.44
2022-11-25T02:10:59.412Z,95516.47
2022-11-25T02:13:27.441Z,95522.88
2022-11-25T02:15:55.784Z,95520.03
2022-11-25T02:18:27.145Z,95535.19
2022-11-25T02:20:56.625Z,95537.09
2022-11-25T02:23:35.999Z,95541.69
2022-11-25T02:26:05.651Z,95537.53
2022-11-25T02:28:34.072Z,95538.91
2022-11-25T02:31:04.679Z,95538.00
2022-11-25T02:33:33.472Z,95533.72
2022-11-25T02:36:03.915Z,95540.59
2022-11-25T02:38:38.461Z,95538.44
2022-11-25T02:41:14.657Z,95535.28
2022-11-25T02:43:45.343Z,95524.19
2022-11-25T02:46:21.570Z,95517.75
2022-11-25T02:49:08.475Z,95521.94
2022-11-25T02:51:39.092Z,95525.50
2022-11-25T02:54:07.358Z,95521.50
2022-11-25T02:56:38.135Z,95521.50
2022-11-25T02:59:06.041Z,95520.69
2022-11-25T03:01:35.786Z,95520.22
2022-11-25T03:04:07.024Z,95515.44
2022-11-25T03:06:35.641Z,95523.47
2022-11-25T03:09:03.489Z,95517.91
2022-11-25T03:11:50.393Z,95515.38
2022-11-25T03:14:20.038Z,95521.53
2022-11-25T03:16:47.857Z,95515.25
2022-11-25T03:19:15.647Z,95523.16
2022-11-25T03:21:43.354Z,95509.25
2022-11-25T03:24:11.073Z,95520.19
2022-11-25T03:26:39.486Z,95526.72
2022-11-25T03:29:08.542Z,95519.44
2022-11-25T03:31:38.310Z,95521.19
2022-11-25T03:34:09.997Z,95529.34
2022-11-25T03:36:38.148Z,95526.44
2022-11-25T03:39:06.808Z,95530.72
2022-11-25T03:41:36.872Z,95536.78
2022-11-25T03:44:04.621Z,95525.00
2022-11-25T03:46:32.992Z,95522.75
2022-11-25T03:49:05.072Z,95524.75
2022-11-25T03:51:33.110Z,95522.84
2022-11-25T03:54:01.165Z,95521.66
2022-11-25T03:56:32.292Z,95518.81
2022-11-25T03:59:00.112Z,95515.03
2022-11-25T04:01:28.749Z,95523.25
2022-11-25T04:03:56.463Z,95520.47
2022-11-25T04:06:25.841Z,95522.38
2022-11-25T04:08:55.057Z,95515.28
2022-11-25T04:11:43.480Z,95509.59
2022-11-25T04:14:11.335Z,95508.72
2022-11-25T04:16:39.755Z,95509.72
2022-11-25T04:19:07.545Z,95510.28
2022-11-25T04:21:37.811Z,95498.59
2022-11-25T04:24:06.181Z,95501.75
2022-11-25T04:26:35.267Z,95492.63
2022-11-25T04:29:02.955Z,95495.69
2022-11-25T04:31:30.675Z,95499.53
2022-11-25T04:33:59.269Z,95503.41
2022-11-25T04:36:27.201Z,95497.81
2022-11-25T04:38:57.422Z,95500.16
2022-11-25T04:41:25.173Z,95502.25
2022-11-25T04:43:54.336Z,95504.84
2022-11-25T04:46:28.656Z,95501.28
2022-11-25T04:48:57.051Z,95510.03
2022-11-25T04:51:24.720Z,95503.06
2022-11-25T04:53:59.248Z,95518.94
2022-11-25T04:56:27.058Z,95516.41
2022-11-25T04:59:14.392Z,95522.84
2022-11-25T05:01:46.460Z,95535.69
2022-11-25T05:04:51.711Z,95538.63
2022-11-25T05:07:22.258Z,95538.88
2022-11-25T05:09:54.000Z,95543.94
2022-11-25T05:12:34.817Z,95546.41
2022-11-25T05:15:07.948Z,95546.88
2022-11-25T05:17:39.173Z,95544.69
2022-11-25T05:20:09.238Z,95552.69
2022-11-25T05:22:37.577Z,95554.31
2022-11-25T05:25:10.714Z,95547.75
2022-11-25T05:27:44.769Z,95556.22
2022-11-25T05:30:16.094Z,95552.16
2022-11-25T05:32:44.818Z,95546.72
2022-11-25T05:35:12.498Z,95543.03
2022-11-25T05:37:41.656Z,95542.06
2022-11-25T05:40:11.816Z,95531.28
2022-11-25T05:42:51.264Z,95531.84
2022-11-25T05:45:20.358Z,95538.59
2022-11-25T05:47:48.458Z,95532.31
2022-11-25T05:50:20.603Z,95530.25
2022-11-25T05:53:03.860Z,95526.47
2022-11-25T05:55:35.239Z,95523.59
2022-11-25T05:58:10.948Z,95518.38
2022-11-25T06:00:48.132Z,95527.69
2022-11-25T06:03:17.188Z,95528.50
2022-11-25T06:05:45.515Z,95534.53
2022-11-25T06:08:13.910Z,95540.81
2022-11-25T06:10:42.974Z,95540.81
2022-11-25T06:13:11.442Z,95545.34
2022-11-25T06:15:42.149Z,95542.06
2022-11-25T06:18:11.055Z,95545.34
2022-11-25T06:20:39.815Z,95535.06
2022-11-25T06:23:08.337Z,95553.13
2022-11-25T06:25:38.277Z,95543.00
2022-11-25T06:28:13.098Z,95544.91
2022-11-25T06:30:44.548Z,95538.06
2022-11-25T06:33:19.297Z,95538.88
2022-11-25T06:35:49.588Z,95542.06
2022-11-25T06:38:17.285Z,95545.34
2022-11-25T06:40:44.969Z,95548.63
2022-11-25T06:43:14.054Z,95564.34
2022-11-25T06:45:42.038Z,95563.81
2022-11-25T06:48:09.716Z,95558.84
2022-11-25T06:50:37.964Z,95559.44
2022-11-25T06:53:05.668Z,95559.97
2022-11-25T06:55:33.945Z,95556.44
2022-11-25T06:58:20.633Z,95556.06
2022-11-25T07:00:50.756Z,95565.09
2022-11-25T07:03:18.462Z,95563.31
2022-11-25T07:05:46.669Z,95569.59
2022-11-25T07:08:14.326Z,95571.50
2022-11-25T07:10:42.955Z,95571.69
2022-11-25T07:13:10.707Z,95572.81
2022-11-25T07:15:38.870Z,95571.59
2022-11-25T07:18:07.962Z,95557.75
2022-11-25T07:20:36.552Z,95563.13
2022-11-25T07:23:04.549Z,95559.72
2022-11-25T07:25:33.723Z,95565.47
2022-11-25T07:28:01.396Z,95577.53
2022-11-25T07:31:21.690Z,95578.91
2022-11-25T07:33:19.107Z,95567.66
2022-11-25T07:35:47.107Z,95563.03
2022-11-25T07:38:14.790Z,95574.25
2022-11-25T07:40:42.781Z,95579.47
2022-11-25T07:43:10.441Z,95573.97
2022-11-25T07:45:39.966Z,95571.34
2022-11-25T07:48:09.700Z,95592.31
2022-11-25T07:50:39.792Z,95592.59
2022-11-25T07:53:08.377Z,95596.28
2022-11-25T07:55:37.982Z,95601.34
2022-11-25T07:58:05.644Z,95596.63
2022-11-25T08:00:33.607Z,95605.94
2022-11-25T08:03:01.321Z,95610.16
2022-11-25T08:05:29.635Z,95615.31
2022-11-25T08:07:58.829Z,95612.25
2022-11-25T08:10:26.575Z,95621.56
2022-11-25T08:12:54.335Z,95623.06
2022-11-25T08:15:22.757Z,95621.09
2022-11-25T08:17:52.571Z,95623.84
2022-11-25T08:20:20.210Z,95630.28
2022-11-25T08:22:47.839Z,95625.13
2022-11-25T08:25:17.173Z,95627.63
2022-11-25T08:27:44.817Z,95637.47
2022-11-25T08:30:13.536Z,95634.53
2022-11-25T08:32:41.411Z,95624.09
2022-11-25T08:35:10.141Z,95626.78
2022-11-25T08:37:37.869Z,95618.69
2022-11-25T08:40:07.082Z,95616.72
2022-11-25T08:42:36.093Z,95610.34
2022-11-25T08:45:04.610Z,95608.66
2022-11-25T08:47:32.518Z,95621.97
2022-11-25T08:50:00.402Z,95611.88
2022-11-25T08:52:29.078Z,95606.19
2022-11-25T08:54:56.868Z,95608.78
2022-11-25T08:57:24.879Z,95614.38
2022-11-25T08:59:53.865Z,95611.31
2022-11-25T09:02:21.579Z,95610.97
2022-11-25T09:04:49.334Z,95617.75
2022-11-25T09:07:17.846Z,95617.91
2022-11-25T09:09:45.691Z,95615.69
2022-11-25T09:12:13.455Z,95616.03
2022-11-25T09:14:41.435Z,95618.59
2022-11-25T09:17:11.707Z,95616.59
2022-11-25T09:19:39.821Z,95617.91
2022-11-25T09:22:08.767Z,95620.13
2022-11-25T09:24:36.947Z,95621.84
2022-11-25T09:27:05.060Z,95621.34
2022-11-25T09:29:32.685Z,95620.84
2022-11-25T09:32:00.926Z,95626.16
2022-11-25T09:34:30.003Z,95624.94
2022-11-25T09:36:58.025Z,95621.31
2022-11-25T09:39:29.800Z,95620.00
2022-11-25T09:42:29.017Z,95614.25
2022-11-25T09:45:28.624Z,95620.19
2022-11-25T09:48:08.867Z,95625.66
2022-11-25T09:50:49.254Z,95621.06
2022-11-25T09:53:36.528Z,95624.00
2022-11-25T09:56:10.710Z,95619.63
2022-11-25T09:58:42.894Z,95621.75
2022-11-25T10:01:16.946Z,95618.69
2022-11-25T10:03:48.747Z,95622.84
2022-11-25T10:06:23.678Z,95616.44
2022-11-25T10:08:53.502Z,95610.94
2022-11-25T10:11:36.311Z,95622.28
2022-11-25T10:14:11.857Z,95614.78
2022-11-25T10:16:51.634Z,95623.59
2022-11-25T10:19:27.276Z,95616.44
2022-11-25T10:21:56.589Z,95625.19
2022-11-25T10:24:28.922Z,95625.59
2022-11-25T10:27:03.804Z,95617.81
2022-11-25T10:29:32.282Z,95613.44
2022-11-25T10:32:12.680Z,95609.91
2022-11-25T10:34:45.551Z,95610.94
2022-11-25T10:37:27.921Z,95603.97
2022-11-25T10:39:55.624Z,95613.75
2022-11-25T10:42:27.437Z,95614.91
2022-11-25T10:44:55.821Z,95606.38
2022-11-25T10:47:34.892Z,95607.88
2022-11-25T10:50:23.684Z,95608.88
2022-11-25T10:53:03.541Z,95614.97
2022-11-25T10:55:33.392Z,95610.94
2022-11-25T10:58:20.785Z,95606.88
2022-11-25T11:00:48.473Z,95619.91
2022-11-25T11:03:23.358Z,95614.38
2022-11-25T11:05:52.857Z,95614.94
2022-11-25T11:08:24.078Z,95615.94
2022-11-25T11:11:11.622Z,95622.88
2022-11-25T11:13:40.006Z,95623.75
2022-11-25T11:16:24.559Z,95617.41
2022-11-25T11:18:53.023Z,95616.19
2022-11-25T11:21:29.231Z,95622.28
2022-11-25T11:23:59.773Z,95613.41
2022-11-25T11:26:29.573Z,95618.00
2022-11-25T11:29:09.825Z,95625.44
2022-11-25T11:31:46.516Z,95619.47
2022-11-25T11:34:36.867Z,95627.16
2022-11-25T11:37:26.151Z,95629.00
2022-11-25T11:40:26.067Z,95627.41
2022-11-25T11:43:10.838Z,95626.16
2022-11-25T11:46:03.101Z,95620.44
2022-11-25T11:48:40.390Z,95621.66
2022-11-25T11:51:19.039Z,95611.88
2022-11-25T11:53:58.400Z,95612.91
2022-11-25T11:56:36.378Z,95611.88
2022-11-25T11:59:30.512Z,95610.25
2022-11-25T12:02:15.401Z,95600.75
2022-11-25T12:04:48.728Z,95597.72
2022-11-25T12:07:23.655Z,95591.38
2022-11-25T12:09:58.956Z,95601.09
2022-11-25T12:12:36.389Z,95596.78
2022-11-25T12:15:12.913Z,95603.16
2022-11-25T12:17:49.519Z,95595.53
2022-11-25T12:20:23.407Z,95610.94
2022-11-25T12:22:59.123Z,95613.31
2022-11-25T12:25:33.723Z,95605.06
2022-11-25T12:28:08.929Z,95609.75
2022-11-25T12:30:46.056Z,95610.53
2022-11-25T12:33:20.310Z,95613.97
2022-11-25T12:35:57.655Z,95605.78
2022-11-25T12:38:35.481Z,95616.72
2022-11-25T12:41:15.022Z,95609.03
2022-11-25T12:43:48.434Z,95610.34
2022-11-25T12:46:24.735Z,95608.91
2022-11-25T12:48:55.225Z,95609.00
2022-11-25T12:51:41.437Z,95617.16
2022-11-25T12:54:23.955Z,95620.69
2022-11-25T12:57:19.785Z,95613.31
2022-11-25T13:00:32.890Z,95626.75
2022-11-25T13:03:30.706Z,95625.53
2022-11-25T13:06:25.188Z,95621.91
2022-11-25T13:08:58.632Z,95635.38
2022-11-25T13:11:55.945Z,95638.16
2022-11-25T13:14:30.125Z,95642.97
2022-11-25T13:17:01.139Z,95638.72
2022-11-25T13:19:29.829Z,95647.16
2022-11-25T13:22:02.588Z,95646.88
2022-11-25T13:24:33.634Z,95651.94
2022-11-25T13:27:02.371Z,95661.63
2022-11-25T13:30:04.459Z,95667.00
2022-11-25T13:32:40.349Z,95662.88
2022-11-25T13:35:37.100Z,95670.13
2022-11-25T13:38:47.736Z,95673.16
2022-11-25T13:41:38.601Z,95680.09
2022-11-25T13:44:11.888Z,95679.97
2022-11-25T13:46:42.431Z,95680.97
2022-11-25T13:49:26.420Z,95686.63
2022-11-25T13:51:56.722Z,95686.69
2022-11-25T13:54:28.518Z,95692.84
2022-11-25T13:57:19.798Z,95686.00
2022-11-25T13:59:53.622Z,95690.69
2022-11-25T14:02:50.753Z,95692.97
2022-11-25T14:05:50.785Z,95697.78
2022-11-25T14:08:27.454Z,95702.34
2022-11-25T14:11:07.085Z,95713.41
2022-11-25T14:13:52.764Z,95717.22
2022-11-25T14:16:36.955Z,95714.00
2022-11-25T14:22:30.977Z,95718.16
2022-11-25T14:25:10.720Z,95725.91
2022-11-25T14:27:38.844Z,95721.56
2022-11-25T14:30:09.791Z,95732.69
2022-11-25T14:32:43.801Z,95737.25
2022-11-25T14:35:18.061Z,95746.81
2022-11-25T14:37:50.814Z,95745.78
2022-11-25T14:40:22.717Z,95749.25
2022-11-25T14:42:55.013Z,95747.28
2022-11-25T14:45:27.280Z,95750.75
2022-11-25T14:47:54.973Z,95754.34
2022-11-25T14:50:38.705Z,95754.25
2022-11-25T14:53:14.124Z,95755.81
2022-11-25T14:55:41.812Z,95753.00
2022-11-25T14:58:13.475Z,95770.19
2022-11-25T15:00:51.917Z,95752.34
2022-11-25T15:03:21.286Z,95762.72
2022-11-25T15:05:56.966Z,95765.00
2022-11-25T15:08:26.748Z,95776.16
2022-11-25T15:10:57.132Z,95771.41
2022-11-25T15:13:34.774Z,95779.78
2022-11-25T15:16:09.082Z,95780.47
2022-11-25T15:18:37.603Z,95778.66
2022-11-25T15:21:06.403Z,95784.75
2022-11-25T15:23:38.727Z,95778.13
2022-11-25T15:26:18.014Z,95788.50
2022-11-25T15:28:45.978Z,95792.44
2022-11-25T15:31:20.663Z,95794.06
2022-11-25T15:33:54.797Z,95796.88
2022-11-25T15:36:23.960Z,95807.25
2022-11-25T15:38:53.468Z,95807.03
2022-11-25T15:41:30.154Z,95813.81
2022-11-25T15:44:00.935Z,95811.34
2022-11-25T15:46:29.994Z,95824.16
2022-11-25T15:48:59.883Z,95823.03
2022-11-25T15:51:35.518Z,95831.88
2022-11-25T15:54:08.849Z,95833.38
2022-11-25T15:56:40.358Z,95835.50
2022-11-25T15:59:41.322Z,95831.91
2022-11-25T16:02:36.302Z,95837.31
2022-11-25T16:05:17.090Z,95845.19
2022-11-25T16:07:59.499Z,95851.91
2022-11-25T16:10:31.597Z,95856.38
2022-11-25T16:13:21.895Z,95859.00
2022-11-25T16:15:54.158Z,95869.16
2022-11-25T16:18:46.911Z,95873.41
2022-11-25T16:21:18.802Z,95876.03
2022-11-25T16:23:50.165Z,95887.56
2022-11-25T16:26:26.268Z,95881.66
2022-11-25T16:28:57.136Z,95890.84
2022-11-25T16:31:26.586Z,95892.00
2022-11-25T16:33:55.448Z,95902.69
2022-11-25T16:36:23.080Z,95901.03
2022-11-25T16:38:53.443Z,95893.00
2022-11-25T16:41:26.095Z,95903.66
2022-11-25T16:43:57.113Z,95912.22
2022-11-25T16:46:27.785Z,95923.13
2022-11-25T16:48:55.447Z,95929.03
2022-11-25T16:51:25.015Z,95928.69
2022-11-25T16:53:53.028Z,95930.84
2022-11-25T16:56:25.636Z,95944.31
2022-11-25T16:58:54.978Z,95952.63
2022-11-25T17:01:26.499Z,95952.97
2022-11-25T17:03:54.196Z,95958.34
2022-11-25T17:06:23.877Z,95963.84
2022-11-25T17:08:52.554Z,95967.84
2022-11-25T17:11:26.765Z,95969.38
2022-11-25T17:13:55.847Z,95975.66
2022-11-25T17:16:26.763Z,95973.00
2022-11-25T17:18:56.450Z,95976.66
2022-11-25T17:21:26.940Z,95975.63
2022-11-25T17:23:55.602Z,95985.72
2022-11-25T17:26:28.091Z,95990.38
2022-11-25T17:28:59.355Z,95987.16
2022-11-25T17:31:28.977Z,95989.88
2022-11-25T17:33:57.266Z,96000.63
2022-11-25T17:36:26.208Z,96003.81
2022-11-25T17:38:54.385Z,96012.56
2022-11-25T17:41:26.753Z,96009.75
2022-11-25T17:43:55.256Z,96008.81
2022-11-25T17:46:24.746Z,96020.03
2022-11-25T17:48:52.488Z,96023.47
2022-11-25T17:51:20.180Z,96019.41
2022-11-25T17:53:48.383Z,96016.25
2022-11-25T17:56:24.048Z,96027.63
2022-11-25T17:58:53.871Z,96025.97
2022-11-25T18:01:22.075Z,96034.97
2022-11-25T18:03:53.044Z,96036.09
2022-11-25T18:06:20.943Z,96041.03
2022-11-25T18:08:49.018Z,96040.91
2022-11-25T18:11:18.473Z,96049.38
2022-11-25T18:13:47.990Z,96048.06
2022-11-25T18:16:19.990Z,96050.09
2022-11-25T18:18:47.654Z,96045.00
2022-11-25T18:21:15.295Z,96055.03
2022-11-25T18:23:43.761Z,96061.09
2022-11-25T18:26:13.157Z,96058.59
2022-11-25T18:28:41.054Z,96063.03
2022-11-25T18:31:08.789Z,96066.28
2022-11-25T18:33:38.275Z,96069.31
2022-11-25T18:36:06.729Z,96075.16
2022-11-25T18:38:34.693Z,96085.22
2022-11-25T18:41:02.721Z,96076.22
2022-11-25T18:43:33.579Z,96087.28
2022-11-25T18:46:01.909Z,96080.31
2022-11-25T18:48:29.622Z,96090.31
2022-11-25T18:50:58.621Z,96094.81
2022-11-25T18:53:26.740Z,96100.66
2022-11-25T18:55:54.777Z,96102.16
2022-11-25T18:58:26.918Z,96104.91
2022-11-25T19:01:00.079Z,96108.28
2022-11-25T19:03:27.837Z,96114.75
2022-11-25T19:05:58.454Z,96107.19
2022-11-25T19:08:28.051Z,96116.13
2022-11-25T19:10:55.758Z,96131.63
2022-11-25T19:13:29.338Z,96131.34
2022-11-25T19:16:01.581Z,96142.25
2022-11-25T19:18:29.418Z,96143.22
2022-11-25T19:20:57.150Z,96140.97
2022-11-25T19:23:28.778Z,96150.34
2022-11-25T19:26:00.794Z,96153.00
2022-11-25T19:28:30.349Z,96157.94
2022-11-25T19:31:01.267Z,96165.47
2022-11-25T19:33:31.685Z,96161.56
2022-11-25T19:35:59.639Z,96174.56
2022-11-25T19:38:29.728Z,96184.03
2022-11-25T19:40:58.497Z,96182.34
2022-11-25T19:43:28.016Z,96201.59
2022-11-25T19:45:57.244Z,96196.88
2022-11-25T19:48:28.289Z,96205.47
2022-11-25T19:50:59.871Z,96198.78
2022-11-25T19:53:33.484Z,96205.53
2022-11-25T19:56:04.939Z,96200.16
2022-11-25T19:58:33.018Z,96211.69
2022-11-25T20:01:03.801Z,96215.38
2022-11-25T20:03:32.437Z,96219.94
2022-11-25T20:06:00.804Z,96227.09
2022-11-25T20:08:29.876Z,96229.41
2022-11-25T20:10:58.901Z,96232.53
2022-11-25T20:13:27.937Z,96239.75
2022-11-25T20:15:57.094Z,96245.25
2022-11-25T20:18:26.783Z,96243.75
2022-11-25T20:21:00.139Z,96252.72
2022-11-25T20:23:33.164Z,96254.66
2022-11-25T20:26:01.753Z,96255.16
2022-11-25T20:28:31.060Z,96252.81
2022-11-25T20:31:00.499Z,96255.16
2022-11-25T20:33:28.695Z,96262.22
2022-11-25T20:36:05.124Z,96273.53
2022-11-25T20:38:36.624Z,96274.63
2022-11-25T20:41:05.972Z,96275.59
2022-11-25T20:43:36.620Z,96268.94
2022-11-25T20:46:05.963Z,96280.22
2022-11-25T20:48:35.173Z,96289.72
2022-11-25T20:51:04.861Z,96289.41
2022-11-25T20:53:34.786Z,96292.44
2022-11-25T20:56:02.809Z,96291.66
2022-11-25T20:58:32.159Z,96294.97
2022-11-25T21:01:00.789Z,96303.13
2022-11-25T21:03:28.491Z,96301.44
2022-11-25T21:05:58.298Z,96305.63
2022-11-25T21:08:28.945Z,96317.47
2022-11-25T21:10:59.831Z,96315.59
2022-11-25T21:13:29.307Z,96323.31
2022-11-25T21:15:58.098Z,96317.50
2022-11-25T21:18:26.240Z,96316.69
2022-11-25T21:20:56.922Z,96321.88
2022-11-25T21:23:28.043Z,96334.56
2022-11-25T21:26:02.596Z,96332.94
2022-11-25T21:28:30.255Z,96336.53
2022-11-25T21:30:58.613Z,96341.47
2022-11-25T21:33:26.253Z,96339.81
2022-11-25T21:35:54.406Z,96342.19
2022-11-25T21:38:24.901Z,96350.63
2022-11-25T21:40:55.751Z,96348.69
2022-11-25T21:43:28.426Z,96352.31
2022-11-25T21:46:01.529Z,96354.78
2022-11-25T21:48:29.637Z,96347.94
2022-11-25T21:50:57.747Z,96350.88
2022-11-25T21:53:26.061Z,96352.38
2022-11-25T21:55:54.858Z,96351.78
2022-11-25T21:58:28.670Z,96357.22
2022-11-25T22:00:58.569Z,96359.31
2022-11-25T22:03:28.998Z,96361.19
2022-11-25T22:05:57.046Z,96367.03
2022-11-25T22:08:24.845Z,96359.19
2022-11-25T22:10:55.791Z,96365.41
2022-11-25T22:13:29.372Z,96365.66
2022-11-25T22:16:00.118Z,96371.31
2022-11-25T22:18:30.730Z,96368.00
2022-11-25T22:20:59.294Z,96373.25
2022-11-25T22:23:27.764Z,96366.78
2022-11-25T22:25:55.787Z,96369.78
2022-11-25T22:28:26.566Z,96367.31
2022-11-25T22:30:56.403Z,96374.66
2022-11-25T22:33:30.736Z,96381.38
2022-11-25T22:35:58.401Z,96380.03
2022-11-25T22:38:26.320Z,96381.94
2022-11-25T22:40:58.327Z,96378.09
2022-11-25T22:43:30.252Z,96378.06
2022-11-25T22:45:58.396Z,96381.00
2022-11-25T22:48:32.861Z,96386.75
2022-11-25T22:51:00.545Z,96386.06
2022-11-25T22:53:29.142Z,96383.19
2022-11-25T22:55:58.206Z,96390.53
2022-11-25T22:58:27.613Z,96390.66
2022-11-25T23:00:57.003Z,96388.56
2022-11-25T23:03:30.033Z,96393.53
2022-11-25T23:05:58.372Z,96393.97
2022-11-25T23:08:28.446Z,96396.03
2022-11-25T23:10:57.293Z,96397.16
2022-11-25T23:13:25.816Z,96405.44
2022-11-25T23:15:55.714Z,96409.56
2022-11-25T23:18:27.323Z,96416.72
2022-11-25T23:20:56.602Z,96406.91
2022-11-25T23:23:26.968Z,96401.13
2022-11-25T23:25:55.973Z,96409.25
2022-11-25T23:28:24.858Z,96411.50
2022-11-25T23:30:54.732Z,96414.94
2022-11-25T23:33:34.826Z,96407.56
2022-11-25T23:36:08.724Z,96411.44
2022-11-25T23:38:42.471Z,96412.25
2022-11-25T23:41:15.417Z,96411.22
2022-11-25T23:43:43.617Z,96423.38
2022-11-25T23:46:14.801Z,96419.97
2022-11-25T23:48:44.240Z,96416.09
2022-11-25T23:51:13.265Z,96417.03
2022-11-25T23:53:42.409Z,96418.00
2022-11-25T23:56:10.057Z,96417.53
2022-11-25T23:58:38.098Z,96422.94
